sensor_id;sensor_type;location;lat;lon;timestamp;temperature;humidity
52285;DHT22;38238;53.304;6.606;2022-07-04T00:00:08;14.20;99.90
52285;DHT22;38238;53.304;6.606;2022-07-04T00:02:35;14.20;99.90
52285;DHT22;38238;53.304;6.606;2022-07-04T00:05:01;14.20;99.90
52285;DHT22;38238;53.304;6.606;2022-07-04T00:07:27;14.20;99.90
52285;DHT22;38238;53.304;6.606;2022-07-04T00:09:53;14.10;99.90
52285;DHT22;38238;53.304;6.606;2022-07-04T00:12:18;14.20;99.90
52285;DHT22;38238;53.304;6.606;2022-07-04T00:14:44;14.10;99.90
52285;DHT22;38238;53.304;6.606;2022-07-04T00:17:10;14.10;99.90
52285;DHT22;38238;53.304;6.606;2022-07-04T00:19:36;14.10;99.90
52285;DHT22;38238;53.304;6.606;2022-07-04T00:22:01;14.10;99.90
52285;DHT22;38238;53.304;6.606;2022-07-04T00:24:27;14.10;99.90
52285;DHT22;38238;53.304;6.606;2022-07-04T00:26:53;14.10;99.90
52285;DHT22;38238;53.304;6.606;2022-07-04T00:29:18;14.10;99.90
52285;DHT22;38238;53.304;6.606;2022-07-04T00:31:44;14.00;99.90
52285;DHT22;38238;53.304;6.606;2022-07-04T00:34:10;14.00;99.90
52285;DHT22;38238;53.304;6.606;2022-07-04T00:36:36;14.00;99.90
52285;DHT22;38238;53.304;6.606;2022-07-04T00:39:02;14.00;99.90
52285;DHT22;38238;53.304;6.606;2022-07-04T00:41:28;13.90;99.90
52285;DHT22;38238;53.304;6.606;2022-07-04T00:44:08;13.90;99.90
52285;DHT22;38238;53.304;6.606;2022-07-04T00:46:34;13.90;99.90
52285;DHT22;38238;53.304;6.606;2022-07-04T00:49:02;13.90;99.90
52285;DHT22;38238;53.304;6.606;2022-07-04T00:51:28;13.80;99.90
52285;DHT22;38238;53.304;6.606;2022-07-04T00:53:55;13.80;99.90
52285;DHT22;38238;53.304;6.606;2022-07-04T00:56:22;13.80;99.90
52285;DHT22;38238;53.304;6.606;2022-07-04T00:58:49;13.80;99.90
52285;DHT22;38238;53.304;6.606;2022-07-04T01:01:16;13.80;99.90
52285;DHT22;38238;53.304;6.606;2022-07-04T01:03:42;13.80;99.90
52285;DHT22;38238;53.304;6.606;2022-07-04T01:06:08;13.70;99.90
52285;DHT22;38238;53.304;6.606;2022-07-04T01:08:37;13.70;99.90
52285;DHT22;38238;53.304;6.606;2022-07-04T01:11:03;13.70;99.90
52285;DHT22;38238;53.304;6.606;2022-07-04T01:13:28;13.70;99.90
52285;DHT22;38238;53.304;6.606;2022-07-04T01:15:54;13.60;99.90
52285;DHT22;38238;53.304;6.606;2022-07-04T01:18:21;13.60;99.90
52285;DHT22;38238;53.304;6.606;2022-07-04T01:20:46;13.50;99.90
52285;DHT22;38238;53.304;6.606;2022-07-04T01:23:12;13.50;99.90
52285;DHT22;38238;53.304;6.606;2022-07-04T01:25:38;13.50;99.90
52285;DHT22;38238;53.304;6.606;2022-07-04T01:28:04;13.40;99.90
52285;DHT22;38238;53.304;6.606;2022-07-04T01:30:33;13.40;99.90
52285;DHT22;38238;53.304;6.606;2022-07-04T01:32:59;13.40;99.90
52285;DHT22;38238;53.304;6.606;2022-07-04T01:35:25;13.40;99.90
52285;DHT22;38238;53.304;6.606;2022-07-04T01:37:51;13.30;99.90
52285;DHT22;38238;53.304;6.606;2022-07-04T01:40:17;13.30;99.90
52285;DHT22;38238;53.304;6.606;2022-07-04T01:42:43;13.30;99.90
52285;DHT22;38238;53.304;6.606;2022-07-04T01:45:10;13.30;99.90
52285;DHT22;38238;53.304;6.606;2022-07-04T01:47:37;13.30;99.90
52285;DHT22;38238;53.304;6.606;2022-07-04T01:50:04;13.20;99.90
52285;DHT22;38238;53.304;6.606;2022-07-04T01:52:31;13.20;99.90
52285;DHT22;38238;53.304;6.606;2022-07-04T01:54:57;13.20;99.90
52285;DHT22;38238;53.304;6.606;2022-07-04T01:57:23;13.20;99.90
52285;DHT22;38238;53.304;6.606;2022-07-04T01:59:49;13.20;99.90
52285;DHT22;38238;53.304;6.606;2022-07-04T02:02:33;13.20;99.90
52285;DHT22;38238;53.304;6.606;2022-07-04T02:04:59;13.20;99.90
52285;DHT22;38238;53.304;6.606;2022-07-04T02:07:24;13.20;99.90
52285;DHT22;38238;53.304;6.606;2022-07-04T02:09:50;13.20;99.90
52285;DHT22;38238;53.304;6.606;2022-07-04T02:12:16;13.20;99.90
52285;DHT22;38238;53.304;6.606;2022-07-04T02:15:00;13.20;99.90
52285;DHT22;38238;53.304;6.606;2022-07-04T02:17:26;13.20;99.90
52285;DHT22;38238;53.304;6.606;2022-07-04T02:19:52;13.20;99.90
52285;DHT22;38238;53.304;6.606;2022-07-04T02:22:18;13.20;99.90
52285;DHT22;38238;53.304;6.606;2022-07-04T02:24:44;13.20;99.90
52285;DHT22;38238;53.304;6.606;2022-07-04T02:27:09;13.20;99.90
52285;DHT22;38238;53.304;6.606;2022-07-04T02:29:35;13.00;99.90
52285;DHT22;38238;53.304;6.606;2022-07-04T02:32:02;13.20;99.90
52285;DHT22;38238;53.304;6.606;2022-07-04T02:34:28;13.20;99.90
52285;DHT22;38238;53.304;6.606;2022-07-04T02:36:54;13.10;99.90
52285;DHT22;38238;53.304;6.606;2022-07-04T02:39:20;13.10;99.90
52285;DHT22;38238;53.304;6.606;2022-07-04T02:41:46;13.10;99.90
52285;DHT22;38238;53.304;6.606;2022-07-04T02:44:12;13.10;99.90
52285;DHT22;38238;53.304;6.606;2022-07-04T02:46:38;13.10;99.90
52285;DHT22;38238;53.304;6.606;2022-07-04T02:49:04;13.10;99.90
52285;DHT22;38238;53.304;6.606;2022-07-04T02:51:30;13.10;99.90
52285;DHT22;38238;53.304;6.606;2022-07-04T02:53:56;13.10;99.90
52285;DHT22;38238;53.304;6.606;2022-07-04T02:56:22;13.10;99.90
52285;DHT22;38238;53.304;6.606;2022-07-04T02:58:48;13.10;99.90
52285;DHT22;38238;53.304;6.606;2022-07-04T03:01:13;13.20;99.90
52285;DHT22;38238;53.304;6.606;2022-07-04T03:03:40;13.20;99.90
52285;DHT22;38238;53.304;6.606;2022-07-04T03:06:07;13.20;99.90
52285;DHT22;38238;53.304;6.606;2022-07-04T03:08:33;13.20;99.90
52285;DHT22;38238;53.304;6.606;2022-07-04T03:10:59;13.20;99.90
52285;DHT22;38238;53.304;6.606;2022-07-04T03:13:25;13.20;99.90
52285;DHT22;38238;53.304;6.606;2022-07-04T03:15:51;13.20;99.90
52285;DHT22;38238;53.304;6.606;2022-07-04T03:18:17;13.20;99.90
52285;DHT22;38238;53.304;6.606;2022-07-04T03:20:43;13.20;99.90
52285;DHT22;38238;53.304;6.606;2022-07-04T03:23:09;13.20;99.90
52285;DHT22;38238;53.304;6.606;2022-07-04T03:25:35;13.20;99.90
52285;DHT22;38238;53.304;6.606;2022-07-04T03:28:01;13.20;99.90
52285;DHT22;38238;53.304;6.606;2022-07-04T03:30:26;13.20;99.90
52285;DHT22;38238;53.304;6.606;2022-07-04T03:32:52;13.20;99.90
52285;DHT22;38238;53.304;6.606;2022-07-04T03:35:18;13.20;99.90
52285;DHT22;38238;53.304;6.606;2022-07-04T03:37:44;13.20;99.90
52285;DHT22;38238;53.304;6.606;2022-07-04T03:40:10;13.20;99.90
52285;DHT22;38238;53.304;6.606;2022-07-04T03:42:36;13.30;99.90
52285;DHT22;38238;53.304;6.606;2022-07-04T03:45:02;13.30;99.90
52285;DHT22;38238;53.304;6.606;2022-07-04T03:47:28;13.40;99.90
52285;DHT22;38238;53.304;6.606;2022-07-04T03:49:53;13.80;99.90
52285;DHT22;38238;53.304;6.606;2022-07-04T03:52:19;14.20;99.90
52285;DHT22;38238;53.304;6.606;2022-07-04T03:54:45;14.60;99.90
52285;DHT22;38238;53.304;6.606;2022-07-04T03:57:10;14.90;99.90
52285;DHT22;38238;53.304;6.606;2022-07-04T03:59:36;15.20;99.90
52285;DHT22;38238;53.304;6.606;2022-07-04T04:02:02;15.30;99.90
52285;DHT22;38238;53.304;6.606;2022-07-04T04:04:28;15.10;99.90
52285;DHT22;38238;53.304;6.606;2022-07-04T04:07:12;14.80;99.90
52285;DHT22;38238;53.304;6.606;2022-07-04T04:09:37;14.50;99.90
52285;DHT22;38238;53.304;6.606;2022-07-04T04:12:03;14.30;99.90
52285;DHT22;38238;53.304;6.606;2022-07-04T04:14:29;14.20;99.90
52285;DHT22;38238;53.304;6.606;2022-07-04T04:16:55;14.00;99.90
52285;DHT22;38238;53.304;6.606;2022-07-04T04:19:20;14.00;99.90
52285;DHT22;38238;53.304;6.606;2022-07-04T04:21:46;13.90;99.90
52285;DHT22;38238;53.304;6.606;2022-07-04T04:24:12;13.90;99.90
52285;DHT22;38238;53.304;6.606;2022-07-04T04:26:37;13.90;99.90
52285;DHT22;38238;53.304;6.606;2022-07-04T04:29:03;14.00;99.90
52285;DHT22;38238;53.304;6.606;2022-07-04T04:31:29;14.00;99.90
52285;DHT22;38238;53.304;6.606;2022-07-04T04:33:56;14.00;99.90
52285;DHT22;38238;53.304;6.606;2022-07-04T04:36:22;14.00;99.90
52285;DHT22;38238;53.304;6.606;2022-07-04T04:38:48;14.00;99.90
52285;DHT22;38238;53.304;6.606;2022-07-04T04:41:14;14.10;99.90
52285;DHT22;38238;53.304;6.606;2022-07-04T04:43:40;14.20;99.90
52285;DHT22;38238;53.304;6.606;2022-07-04T04:46:05;14.20;99.90
52285;DHT22;38238;53.304;6.606;2022-07-04T04:48:31;14.20;99.90
52285;DHT22;38238;53.304;6.606;2022-07-04T04:50:57;14.20;99.90
52285;DHT22;38238;53.304;6.606;2022-07-04T04:53:22;14.30;99.90
52285;DHT22;38238;53.304;6.606;2022-07-04T04:55:51;14.30;99.90
52285;DHT22;38238;53.304;6.606;2022-07-04T04:58:18;14.30;99.90
52285;DHT22;38238;53.304;6.606;2022-07-04T05:00:44;14.40;99.90
52285;DHT22;38238;53.304;6.606;2022-07-04T05:03:09;14.40;99.90
52285;DHT22;38238;53.304;6.606;2022-07-04T05:05:35;14.40;99.90
52285;DHT22;38238;53.304;6.606;2022-07-04T05:08:01;14.40;99.90
52285;DHT22;38238;53.304;6.606;2022-07-04T05:10:27;14.40;99.90
52285;DHT22;38238;53.304;6.606;2022-07-04T05:12:52;14.50;99.90
52285;DHT22;38238;53.304;6.606;2022-07-04T05:15:18;14.50;99.90
52285;DHT22;38238;53.304;6.606;2022-07-04T05:17:44;14.60;99.90
52285;DHT22;38238;53.304;6.606;2022-07-04T05:20:10;14.60;99.90
52285;DHT22;38238;53.304;6.606;2022-07-04T05:22:35;14.70;99.90
52285;DHT22;38238;53.304;6.606;2022-07-04T05:25:01;14.80;99.90
52285;DHT22;38238;53.304;6.606;2022-07-04T05:27:27;14.90;99.90
52285;DHT22;38238;53.304;6.606;2022-07-04T05:29:53;15.10;99.90
52285;DHT22;38238;53.304;6.606;2022-07-04T05:32:19;15.20;99.90
52285;DHT22;38238;53.304;6.606;2022-07-04T05:34:44;15.20;99.90
52285;DHT22;38238;53.304;6.606;2022-07-04T05:37:10;15.30;99.90
52285;DHT22;38238;53.304;6.606;2022-07-04T05:39:36;15.30;99.90
52285;DHT22;38238;53.304;6.606;2022-07-04T05:42:01;15.30;99.90
52285;DHT22;38238;53.304;6.606;2022-07-04T05:44:27;15.30;99.90
52285;DHT22;38238;53.304;6.606;2022-07-04T05:46:54;15.30;99.90
52285;DHT22;38238;53.304;6.606;2022-07-04T05:49:19;15.30;99.90
52285;DHT22;38238;53.304;6.606;2022-07-04T05:51:45;15.30;99.90
52285;DHT22;38238;53.304;6.606;2022-07-04T05:54:11;15.40;99.90
52285;DHT22;38238;53.304;6.606;2022-07-04T05:56:36;15.50;99.90
52285;DHT22;38238;53.304;6.606;2022-07-04T05:59:03;15.60;99.90
52285;DHT22;38238;53.304;6.606;2022-07-04T06:01:29;15.70;99.90
52285;DHT22;38238;53.304;6.606;2022-07-04T06:03:54;15.70;99.90
52285;DHT22;38238;53.304;6.606;2022-07-04T06:06:20;15.80;99.90
52285;DHT22;38238;53.304;6.606;2022-07-04T06:08:46;15.80;99.90
52285;DHT22;38238;53.304;6.606;2022-07-04T06:11:11;15.80;99.90
52285;DHT22;38238;53.304;6.606;2022-07-04T06:13:37;15.80;99.90
52285;DHT22;38238;53.304;6.606;2022-07-04T06:16:03;15.80;99.90
52285;DHT22;38238;53.304;6.606;2022-07-04T06:18:29;15.80;99.90
52285;DHT22;38238;53.304;6.606;2022-07-04T06:20:55;15.90;99.90
52285;DHT22;38238;53.304;6.606;2022-07-04T06:23:20;15.90;99.90
52285;DHT22;38238;53.304;6.606;2022-07-04T06:25:46;16.00;99.90
52285;DHT22;38238;53.304;6.606;2022-07-04T06:28:12;16.10;99.90
52285;DHT22;38238;53.304;6.606;2022-07-04T06:30:38;16.10;99.90
52285;DHT22;38238;53.304;6.606;2022-07-04T06:33:03;16.20;99.90
52285;DHT22;38238;53.304;6.606;2022-07-04T06:35:30;16.30;99.90
52285;DHT22;38238;53.304;6.606;2022-07-04T06:38:18;16.40;99.90
52285;DHT22;38238;53.304;6.606;2022-07-04T06:40:45;16.50;99.90
52285;DHT22;38238;53.304;6.606;2022-07-04T06:43:10;16.60;99.90
52285;DHT22;38238;53.304;6.606;2022-07-04T06:45:37;16.70;99.90
52285;DHT22;38238;53.304;6.606;2022-07-04T06:48:06;16.80;99.90
52285;DHT22;38238;53.304;6.606;2022-07-04T06:50:33;16.80;99.90
52285;DHT22;38238;53.304;6.606;2022-07-04T06:53:00;16.90;99.90
52285;DHT22;38238;53.304;6.606;2022-07-04T06:55:26;17.00;99.90
52285;DHT22;38238;53.304;6.606;2022-07-04T06:57:52;17.10;99.90
52285;DHT22;38238;53.304;6.606;2022-07-04T07:00:17;17.20;99.90
52285;DHT22;38238;53.304;6.606;2022-07-04T07:02:43;17.20;99.90
52285;DHT22;38238;53.304;6.606;2022-07-04T07:05:09;17.30;99.90
52285;DHT22;38238;53.304;6.606;2022-07-04T07:07:35;17.30;99.90
52285;DHT22;38238;53.304;6.606;2022-07-04T07:10:00;17.30;99.90
52285;DHT22;38238;53.304;6.606;2022-07-04T07:12:29;17.50;99.90
52285;DHT22;38238;53.304;6.606;2022-07-04T07:14:54;17.50;99.90
52285;DHT22;38238;53.304;6.606;2022-07-04T07:17:21;17.60;99.90
52285;DHT22;38238;53.304;6.606;2022-07-04T07:19:47;17.70;99.90
52285;DHT22;38238;53.304;6.606;2022-07-04T07:22:13;17.70;99.90
52285;DHT22;38238;53.304;6.606;2022-07-04T07:24:39;17.80;99.90
52285;DHT22;38238;53.304;6.606;2022-07-04T07:27:07;17.90;99.90
52285;DHT22;38238;53.304;6.606;2022-07-04T07:29:33;18.10;99.90
52285;DHT22;38238;53.304;6.606;2022-07-04T07:31:59;18.10;99.90
52285;DHT22;38238;53.304;6.606;2022-07-04T07:34:25;18.10;99.90
52285;DHT22;38238;53.304;6.606;2022-07-04T07:36:51;18.00;99.90
52285;DHT22;38238;53.304;6.606;2022-07-04T07:39:16;18.00;99.90
52285;DHT22;38238;53.304;6.606;2022-07-04T07:41:42;18.00;99.90
52285;DHT22;38238;53.304;6.606;2022-07-04T07:44:08;18.00;99.90
52285;DHT22;38238;53.304;6.606;2022-07-04T07:46:34;18.00;99.90
52285;DHT22;38238;53.304;6.606;2022-07-04T07:49:00;18.00;99.90
52285;DHT22;38238;53.304;6.606;2022-07-04T07:51:26;18.00;99.90
52285;DHT22;38238;53.304;6.606;2022-07-04T07:53:52;18.00;99.90
52285;DHT22;38238;53.304;6.606;2022-07-04T07:56:18;18.00;99.90
52285;DHT22;38238;53.304;6.606;2022-07-04T07:58:43;18.00;99.90
52285;DHT22;38238;53.304;6.606;2022-07-04T08:01:09;18.00;99.90
52285;DHT22;38238;53.304;6.606;2022-07-04T08:03:35;18.00;99.90
52285;DHT22;38238;53.304;6.606;2022-07-04T08:06:19;18.00;99.90
52285;DHT22;38238;53.304;6.606;2022-07-04T08:08:45;18.00;99.90
52285;DHT22;38238;53.304;6.606;2022-07-04T08:11:11;18.00;99.90
52285;DHT22;38238;53.304;6.606;2022-07-04T08:13:38;18.00;99.90
52285;DHT22;38238;53.304;6.606;2022-07-04T08:16:04;17.90;99.90
52285;DHT22;38238;53.304;6.606;2022-07-04T08:18:30;18.00;99.90
52285;DHT22;38238;53.304;6.606;2022-07-04T08:20:55;18.00;99.90
52285;DHT22;38238;53.304;6.606;2022-07-04T08:23:21;18.20;99.90
52285;DHT22;38238;53.304;6.606;2022-07-04T08:25:47;18.70;99.90
52285;DHT22;38238;53.304;6.606;2022-07-04T08:28:12;19.20;99.90
52285;DHT22;38238;53.304;6.606;2022-07-04T08:30:38;19.90;99.90
52285;DHT22;38238;53.304;6.606;2022-07-04T08:33:04;20.30;99.90
52285;DHT22;38238;53.304;6.606;2022-07-04T08:35:30;20.20;99.90
52285;DHT22;38238;53.304;6.606;2022-07-04T08:37:55;20.00;99.90
52285;DHT22;38238;53.304;6.606;2022-07-04T08:40:22;20.00;99.90
52285;DHT22;38238;53.304;6.606;2022-07-04T08:42:49;20.00;99.90
52285;DHT22;38238;53.304;6.606;2022-07-04T08:45:16;19.80;99.90
52285;DHT22;38238;53.304;6.606;2022-07-04T08:47:43;19.90;99.90
52285;DHT22;38238;53.304;6.606;2022-07-04T08:50:18;20.50;99.90
52285;DHT22;38238;53.304;6.606;2022-07-04T08:53:02;21.30;99.90
52285;DHT22;38238;53.304;6.606;2022-07-04T08:55:29;21.60;99.90
52285;DHT22;38238;53.304;6.606;2022-07-04T08:58:14;21.90;99.90
52285;DHT22;38238;53.304;6.606;2022-07-04T09:01:06;22.60;99.90
52285;DHT22;38238;53.304;6.606;2022-07-04T09:03:33;22.80;99.90
52285;DHT22;38238;53.304;6.606;2022-07-04T09:06:00;22.40;99.90
52285;DHT22;38238;53.304;6.606;2022-07-04T09:08:27;21.80;99.90
52285;DHT22;38238;53.304;6.606;2022-07-04T09:10:53;21.30;99.90
52285;DHT22;38238;53.304;6.606;2022-07-04T09:13:19;20.90;99.90
52285;DHT22;38238;53.304;6.606;2022-07-04T09:15:47;20.90;99.90
52285;DHT22;38238;53.304;6.606;2022-07-04T09:20:53;21.90;99.90
52285;DHT22;38238;53.304;6.606;2022-07-04T09:23:22;22.40;99.90
52285;DHT22;38238;53.304;6.606;2022-07-04T09:28:33;22.90;99.90
52285;DHT22;38238;53.304;6.606;2022-07-04T09:30:59;23.10;99.90
52285;DHT22;38238;53.304;6.606;2022-07-04T09:33:50;23.10;99.90
52285;DHT22;38238;53.304;6.606;2022-07-04T09:36:22;23.00;99.90
52285;DHT22;38238;53.304;6.606;2022-07-04T09:39:24;23.10;99.90
52285;DHT22;38238;53.304;6.606;2022-07-04T09:44:18;23.70;99.60
52285;DHT22;38238;53.304;6.606;2022-07-04T09:46:44;23.60;99.00
52285;DHT22;38238;53.304;6.606;2022-07-04T09:49:11;23.60;99.10
52285;DHT22;38238;53.304;6.606;2022-07-04T09:51:45;23.70;99.00
52285;DHT22;38238;53.304;6.606;2022-07-04T09:54:18;23.80;99.00
52285;DHT22;38238;53.304;6.606;2022-07-04T09:56:50;23.60;98.20
52285;DHT22;38238;53.304;6.606;2022-07-04T09:59:17;23.40;98.10
52285;DHT22;38238;53.304;6.606;2022-07-04T10:01:43;23.10;98.20
52285;DHT22;38238;53.304;6.606;2022-07-04T10:04:09;22.70;98.40
52285;DHT22;38238;53.304;6.606;2022-07-04T10:06:41;22.50;99.00
52285;DHT22;38238;53.304;6.606;2022-07-04T10:09:17;22.40;99.40
52285;DHT22;38238;53.304;6.606;2022-07-04T10:11:45;22.40;98.70
52285;DHT22;38238;53.304;6.606;2022-07-04T10:14:12;22.10;98.50
52285;DHT22;38238;53.304;6.606;2022-07-04T10:16:39;21.80;98.30
52285;DHT22;38238;53.304;6.606;2022-07-04T10:19:07;21.60;98.70
52285;DHT22;38238;53.304;6.606;2022-07-04T10:21:33;21.70;99.10
52285;DHT22;38238;53.304;6.606;2022-07-04T10:24:00;21.90;98.80
52285;DHT22;38238;53.304;6.606;2022-07-04T10:26:28;22.00;99.20
52285;DHT22;38238;53.304;6.606;2022-07-04T10:28:55;22.30;99.40
52285;DHT22;38238;53.304;6.606;2022-07-04T10:31:23;22.70;99.30
52285;DHT22;38238;53.304;6.606;2022-07-04T10:33:50;22.90;98.70
52285;DHT22;38238;53.304;6.606;2022-07-04T10:36:23;22.90;98.60
52285;DHT22;38238;53.304;6.606;2022-07-04T10:38:55;22.90;98.90
52285;DHT22;38238;53.304;6.606;2022-07-04T10:41:23;23.00;98.30
52285;DHT22;38238;53.304;6.606;2022-07-04T10:44:03;23.20;98.50
52285;DHT22;38238;53.304;6.606;2022-07-04T10:46:46;23.40;97.90
52285;DHT22;38238;53.304;6.606;2022-07-04T10:54:18;23.10;97.50
52285;DHT22;38238;53.304;6.606;2022-07-04T10:56:48;23.10;97.80
52285;DHT22;38238;53.304;6.606;2022-07-04T10:59:20;23.20;98.30
52285;DHT22;38238;53.304;6.606;2022-07-04T11:05:07;23.50;97.70
52285;DHT22;38238;53.304;6.606;2022-07-04T11:17:55;22.90;97.10
52285;DHT22;38238;53.304;6.606;2022-07-04T11:20:23;22.80;97.10
52285;DHT22;38238;53.304;6.606;2022-07-04T11:22:49;22.90;97.20
52285;DHT22;38238;53.304;6.606;2022-07-04T11:25:15;22.90;97.40
52285;DHT22;38238;53.304;6.606;2022-07-04T11:27:42;23.10;97.10
52285;DHT22;38238;53.304;6.606;2022-07-04T11:30:09;23.20;96.70
52285;DHT22;38238;53.304;6.606;2022-07-04T11:32:36;23.30;96.20
52285;DHT22;38238;53.304;6.606;2022-07-04T11:35:04;23.40;96.20
52285;DHT22;38238;53.304;6.606;2022-07-04T11:37:30;23.50;96.40
52285;DHT22;38238;53.304;6.606;2022-07-04T11:39:56;23.70;95.60
52285;DHT22;38238;53.304;6.606;2022-07-04T11:43:05;23.60;95.30
52285;DHT22;38238;53.304;6.606;2022-07-04T11:45:50;23.50;95.20
52285;DHT22;38238;53.304;6.606;2022-07-04T11:48:26;23.60;95.20
52285;DHT22;38238;53.304;6.606;2022-07-04T11:50:53;23.60;94.90
52285;DHT22;38238;53.304;6.606;2022-07-04T11:53:19;23.60;94.50
52285;DHT22;38238;53.304;6.606;2022-07-04T11:55:56;23.50;94.20
52285;DHT22;38238;53.304;6.606;2022-07-04T11:58:23;23.30;94.40
52285;DHT22;38238;53.304;6.606;2022-07-04T12:00:49;23.20;94.60
52285;DHT22;38238;53.304;6.606;2022-07-04T12:03:15;23.20;94.60
52285;DHT22;38238;53.304;6.606;2022-07-04T12:05:41;23.20;94.20
52285;DHT22;38238;53.304;6.606;2022-07-04T12:08:09;23.20;94.10
52285;DHT22;38238;53.304;6.606;2022-07-04T12:10:35;23.20;94.60
52285;DHT22;38238;53.304;6.606;2022-07-04T12:13:06;23.20;94.30
52285;DHT22;38238;53.304;6.606;2022-07-04T12:15:42;23.20;94.30
52285;DHT22;38238;53.304;6.606;2022-07-04T12:20:47;23.80;93.90
52285;DHT22;38238;53.304;6.606;2022-07-04T12:23:13;22.80;93.70
52285;DHT22;38238;53.304;6.606;2022-07-04T12:25:38;22.80;94.00
52285;DHT22;38238;53.304;6.606;2022-07-04T12:28:10;22.80;93.50
52285;DHT22;38238;53.304;6.606;2022-07-04T12:33:19;22.80;93.80
52285;DHT22;38238;53.304;6.606;2022-07-04T12:35:47;23.00;94.30
52285;DHT22;38238;53.304;6.606;2022-07-04T12:40:59;23.00;94.30
52285;DHT22;38238;53.304;6.606;2022-07-04T12:43:48;23.00;93.30
52285;DHT22;38238;53.304;6.606;2022-07-04T12:48:54;22.70;93.20
52285;DHT22;38238;53.304;6.606;2022-07-04T12:51:21;22.80;93.40
52285;DHT22;38238;53.304;6.606;2022-07-04T12:53:49;22.90;93.20
52285;DHT22;38238;53.304;6.606;2022-07-04T12:56:30;22.90;93.10
52285;DHT22;38238;53.304;6.606;2022-07-04T12:58:57;22.90;92.30
52285;DHT22;38238;53.304;6.606;2022-07-04T13:01:23;22.80;92.90
52285;DHT22;38238;53.304;6.606;2022-07-04T13:03:49;23.00;93.30
52285;DHT22;38238;53.304;6.606;2022-07-04T13:06:15;23.10;92.60
52285;DHT22;38238;53.304;6.606;2022-07-04T13:08:41;23.10;92.60
52285;DHT22;38238;53.304;6.606;2022-07-04T13:11:06;23.10;92.40
52285;DHT22;38238;53.304;6.606;2022-07-04T13:13:50;23.10;92.30
52285;DHT22;38238;53.304;6.606;2022-07-04T13:16:16;23.00;92.10
52285;DHT22;38238;53.304;6.606;2022-07-04T13:18:42;23.00;92.00
52285;DHT22;38238;53.304;6.606;2022-07-04T13:21:07;23.10;91.90
52285;DHT22;38238;53.304;6.606;2022-07-04T13:23:33;23.10;91.70
52285;DHT22;38238;53.304;6.606;2022-07-04T13:25:59;23.10;91.40
52285;DHT22;38238;53.304;6.606;2022-07-04T13:28:25;23.10;91.40
52285;DHT22;38238;53.304;6.606;2022-07-04T13:30:51;23.20;91.90
52285;DHT22;38238;53.304;6.606;2022-07-04T13:33:17;23.20;91.30
52285;DHT22;38238;53.304;6.606;2022-07-04T13:35:42;23.20;91.30
52285;DHT22;38238;53.304;6.606;2022-07-04T13:38:08;23.10;91.20
52285;DHT22;38238;53.304;6.606;2022-07-04T13:40:34;23.10;92.00
52285;DHT22;38238;53.304;6.606;2022-07-04T13:43:00;23.10;92.20
52285;DHT22;38238;53.304;6.606;2022-07-04T13:45:26;22.90;92.50
52285;DHT22;38238;53.304;6.606;2022-07-04T13:47:53;22.90;92.30
52285;DHT22;38238;53.304;6.606;2022-07-04T13:50:20;22.90;92.30
52285;DHT22;38238;53.304;6.606;2022-07-04T13:52:46;22.90;92.50
52285;DHT22;38238;53.304;6.606;2022-07-04T13:55:12;22.80;92.50
52285;DHT22;38238;53.304;6.606;2022-07-04T13:57:38;22.90;92.30
52285;DHT22;38238;53.304;6.606;2022-07-04T14:00:05;23.00;92.50
52285;DHT22;38238;53.304;6.606;2022-07-04T14:02:32;23.20;91.80
52285;DHT22;38238;53.304;6.606;2022-07-04T14:04:57;23.20;92.20
52285;DHT22;38238;53.304;6.606;2022-07-04T14:07:23;23.10;91.40
52285;DHT22;38238;53.304;6.606;2022-07-04T14:09:49;23.10;92.00
52285;DHT22;38238;53.304;6.606;2022-07-04T14:12:15;23.10;91.90
52285;DHT22;38238;53.304;6.606;2022-07-04T14:14:41;23.20;92.00
52285;DHT22;38238;53.304;6.606;2022-07-04T14:17:07;23.10;92.10
52285;DHT22;38238;53.304;6.606;2022-07-04T14:19:33;23.00;92.30
52285;DHT22;38238;53.304;6.606;2022-07-04T14:21:59;23.10;92.10
52285;DHT22;38238;53.304;6.606;2022-07-04T14:24:24;23.10;91.90
52285;DHT22;38238;53.304;6.606;2022-07-04T14:26:52;23.10;91.80
52285;DHT22;38238;53.304;6.606;2022-07-04T14:29:18;23.20;92.20
52285;DHT22;38238;53.304;6.606;2022-07-04T14:31:43;23.40;92.40
52285;DHT22;38238;53.304;6.606;2022-07-04T14:34:10;23.40;92.30
52285;DHT22;38238;53.304;6.606;2022-07-04T14:36:38;23.40;91.90
52285;DHT22;38238;53.304;6.606;2022-07-04T14:39:04;23.20;91.40
52285;DHT22;38238;53.304;6.606;2022-07-04T14:41:30;23.00;91.60
52285;DHT22;38238;53.304;6.606;2022-07-04T14:43:56;22.90;92.00
52285;DHT22;38238;53.304;6.606;2022-07-04T14:46:22;22.80;91.90
52285;DHT22;38238;53.304;6.606;2022-07-04T14:48:48;22.90;92.20
52285;DHT22;38238;53.304;6.606;2022-07-04T14:51:13;22.90;92.20
52285;DHT22;38238;53.304;6.606;2022-07-04T14:53:39;22.90;92.20
52285;DHT22;38238;53.304;6.606;2022-07-04T14:56:05;22.80;92.40
52285;DHT22;38238;53.304;6.606;2022-07-04T14:58:30;22.90;92.70
52285;DHT22;38238;53.304;6.606;2022-07-04T15:00:57;23.10;92.30
52285;DHT22;38238;53.304;6.606;2022-07-04T15:03:23;23.00;91.80
52285;DHT22;38238;53.304;6.606;2022-07-04T15:05:49;23.20;92.10
52285;DHT22;38238;53.304;6.606;2022-07-04T15:08:15;23.20;91.80
52285;DHT22;38238;53.304;6.606;2022-07-04T15:10:41;23.10;91.90
52285;DHT22;38238;53.304;6.606;2022-07-04T15:13:06;22.80;91.70
52285;DHT22;38238;53.304;6.606;2022-07-04T15:15:32;22.70;92.00
52285;DHT22;38238;53.304;6.606;2022-07-04T15:17:58;22.70;91.90
52285;DHT22;38238;53.304;6.606;2022-07-04T15:20:24;22.60;92.00
52285;DHT22;38238;53.304;6.606;2022-07-04T15:23:08;22.50;92.00
52285;DHT22;38238;53.304;6.606;2022-07-04T15:25:53;22.50;92.00
52285;DHT22;38238;53.304;6.606;2022-07-04T15:28:18;22.50;92.00
52285;DHT22;38238;53.304;6.606;2022-07-04T15:30:44;22.70;92.00
52285;DHT22;38238;53.304;6.606;2022-07-04T15:33:10;22.60;91.80
52285;DHT22;38238;53.304;6.606;2022-07-04T15:35:42;22.50;91.90
52285;DHT22;38238;53.304;6.606;2022-07-04T15:38:08;22.40;91.90
52285;DHT22;38238;53.304;6.606;2022-07-04T15:40:34;22.10;91.90
52285;DHT22;38238;53.304;6.606;2022-07-04T15:43:00;22.10;92.10
52285;DHT22;38238;53.304;6.606;2022-07-04T15:45:26;22.30;92.30
52285;DHT22;38238;53.304;6.606;2022-07-04T15:47:51;22.40;91.80
52285;DHT22;38238;53.304;6.606;2022-07-04T15:50:17;22.40;92.00
52285;DHT22;38238;53.304;6.606;2022-07-04T15:52:43;22.40;91.80
52285;DHT22;38238;53.304;6.606;2022-07-04T15:55:08;22.30;91.70
52285;DHT22;38238;53.304;6.606;2022-07-04T15:57:34;22.10;91.80
52285;DHT22;38238;53.304;6.606;2022-07-04T16:00:00;22.10;91.80
52285;DHT22;38238;53.304;6.606;2022-07-04T16:02:26;22.10;91.60
52285;DHT22;38238;53.304;6.606;2022-07-04T16:04:51;22.00;91.80
52285;DHT22;38238;53.304;6.606;2022-07-04T16:07:17;22.10;91.80